Time;durP1;ratioP1;P1;durP2;ratioP2;P2;SDS_P1;SDS_P2;PMS_P1;PMS_P2;Temp;Humidity;BMP_temperature;BMP_pressure;BME280_temperature;BME280_humidity;BME280_pressure;Samples;Min_cycle;Max_cycle;Signal;HPM_P1;HPM_P2
2023/04/29 00:02:42;;;;;;;8.32;5.37;;;17.10;76.40;;;;;;10861968;32;20020;-73
2023/04/29 00:08:44;;;;;;;7.57;5.43;;;17.10;76.20;;;;;;10860861;32;20020;-74
2023/04/29 00:14:47;;;;;;;9.68;6.97;;;17.10;76.30;;;;;;10843316;32;20031;-74
2023/04/29 00:20:49;;;;;;;11.38;7.03;;;17.00;76.30;;;;;;10847560;32;20040;-74
2023/04/29 00:26:52;;;;;;;7.32;5.43;;;17.00;76.40;;;;;;10847943;32;20443;-74
2023/04/29 00:32:55;;;;;;;8.73;6.25;;;17.00;76.30;;;;;;10861471;32;20393;-74
2023/04/29 00:38:58;;;;;;;7.85;6.10;;;17.00;76.30;;;;;;10861392;32;20016;-74
2023/04/29 00:45:01;;;;;;;5.05;3.60;;;16.90;76.50;;;;;;10848652;32;20415;-74
2023/04/29 00:51:05;;;;;;;7.85;6.37;;;16.90;76.40;;;;;;10856248;32;20060;-74
2023/04/29 00:57:11;;;;;;;7.43;5.62;;;16.90;76.70;;;;;;10861400;32;20050;-74
2023/04/29 01:03:13;;;;;;;6.57;4.47;;;16.80;77.10;;;;;;10860643;32;20047;-74
2023/04/29 01:09:51;;;;;;;8.48;5.35;;;16.80;77.40;;;;;;10859485;32;20015;-74
2023/04/29 01:16:05;;;;;;;7.82;5.62;;;16.80;77.70;;;;;;10861775;32;20027;-74
2023/04/29 01:22:13;;;;;;;7.57;5.32;;;16.80;77.50;;;;;;10866044;32;20015;-74
2023/04/29 01:28:24;;;;;;;8.40;5.95;;;16.80;77.80;;;;;;10865331;32;20015;-74
2023/04/29 01:35:07;;;;;;;8.65;5.28;;;16.80;78.00;;;;;;10866457;32;20054;-74
2023/04/29 01:41:16;;;;;;;9.38;6.70;;;16.80;78.10;;;;;;10667286;33;20021;-75
2023/04/29 01:47:20;;;;;;;8.13;6.10;;;16.80;78.10;;;;;;10678936;33;20052;-74
2023/04/29 01:53:23;;;;;;;8.10;6.00;;;16.70;78.20;;;;;;10665529;33;20099;-74
2023/04/29 01:59:27;;;;;;;8.85;6.85;;;16.70;78.30;;;;;;10677433;33;20052;-74
2023/04/29 02:05:33;;;;;;;8.95;6.18;;;16.60;78.10;;;;;;10666977;33;20048;-74
2023/04/29 02:11:36;;;;;;;9.82;7.40;;;16.70;78.30;;;;;;10716981;32;20036;-74
2023/04/29 02:18:01;;;;;;;7.55;4.95;;;16.70;78.40;;;;;;10862004;32;20058;-74
2023/04/29 02:24:03;;;;;;;8.55;5.80;;;16.70;78.20;;;;;;10828436;33;20060;-74
2023/04/29 02:30:06;;;;;;;8.18;5.22;;;16.70;78.30;;;;;;10827689;32;20050;-74
2023/04/29 02:36:09;;;;;;;6.00;4.82;;;16.70;78.60;;;;;;10822721;33;20050;-74
2023/04/29 02:42:12;;;;;;;6.32;4.20;;;16.70;78.40;;;;;;10826204;33;20023;-74
2023/04/29 02:48:18;;;;;;;9.15;6.87;;;16.70;78.40;;;;;;10814051;33;20055;-74
2023/04/29 02:54:20;;;;;;;8.20;5.05;;;16.70;78.50;;;;;;10825813;33;20070;-74
2023/04/29 03:00:25;;;;;;;7.15;4.82;;;16.70;78.60;;;;;;10874168;32;20043;-74
2023/04/29 03:06:27;;;;;;;8.10;6.15;;;16.60;79.00;;;;;;10825514;33;20016;-74
2023/04/29 03:12:29;;;;;;;10.52;5.18;;;16.50;79.30;;;;;;10826427;33;20374;-74
2023/04/29 03:18:38;;;;;;;10.60;6.70;;;16.50;79.60;;;;;;10826383;33;20165;-74
2023/04/29 03:24:40;;;;;;;7.75;5.90;;;16.50;79.40;;;;;;10813155;33;20028;-74
2023/04/29 03:30:42;;;;;;;7.32;5.43;;;16.40;79.40;;;;;;10825496;33;20046;-74
2023/04/29 03:36:44;;;;;;;7.57;5.47;;;16.40;79.50;;;;;;10825790;32;20393;-74
2023/04/29 03:42:47;;;;;;;5.57;4.35;;;16.40;79.30;;;;;;10824979;33;20032;-74
2023/04/29 03:48:50;;;;;;;10.88;5.30;;;16.20;79.20;;;;;;10824168;32;20032;-74
2023/04/29 03:54:53;;;;;;;7.85;4.43;;;16.20;79.30;;;;;;10824717;33;20020;-74
2023/04/29 04:00:55;;;;;;;5.70;3.85;;;16.20;79.30;;;;;;10825305;33;20407;-74
2023/04/29 04:07:03;;;;;;;8.30;6.12;;;16.10;78.90;;;;;;10812514;33;20024;-74
2023/04/29 04:13:07;;;;;;;6.12;4.18;;;16.10;79.10;;;;;;10810996;33;20032;-74
2023/04/29 04:19:11;;;;;;;5.47;3.67;;;16.20;79.00;;;;;;10823622;33;20044;-74
2023/04/29 04:25:14;;;;;;;7.60;4.95;;;16.20;79.00;;;;;;10823541;33;20054;-74
2023/04/29 04:31:17;;;;;;;10.43;6.57;;;16.10;79.40;;;;;;10823505;33;20047;-74
2023/04/29 04:37:20;;;;;;;7.82;6.15;;;16.20;79.30;;;;;;10823113;33;20036;-74
2023/04/29 04:43:24;;;;;;;8.43;6.65;;;16.10;79.30;;;;;;10823165;33;20066;-74
2023/04/29 04:49:26;;;;;;;7.10;5.18;;;16.10;79.40;;;;;;10823841;32;20062;-74
2023/04/29 04:55:30;;;;;;;9.35;6.53;;;16.00;79.70;;;;;;10830264;33;20036;-74
2023/04/29 05:01:33;;;;;;;7.20;4.90;;;16.10;79.60;;;;;;10829133;33;20028;-74
2023/04/29 05:07:35;;;;;;;9.38;4.32;;;16.10;79.50;;;;;;10828818;33;20362;-74
2023/04/29 05:13:38;;;;;;;8.50;5.68;;;16.10;79.50;;;;;;10830070;33;20058;-74
2023/04/29 05:19:40;;;;;;;6.47;3.67;;;16.10;79.80;;;;;;10826013;33;20055;-74
2023/04/29 05:25:44;;;;;;;7.28;4.90;;;16.10;79.60;;;;;;10828372;33;20392;-74
2023/04/29 05:31:47;;;;;;;5.10;3.40;;;16.10;79.50;;;;;;10828263;33;20032;-74
2023/04/29 05:37:49;;;;;;;5.00;2.67;;;16.20;79.20;;;;;;10812608;33;20327;-74
2023/04/29 05:43:53;;;;;;;5.07;2.70;;;16.20;79.20;;;;;;10828413;33;20045;-74
2023/04/29 05:49:56;;;;;;;6.87;5.32;;;16.10;79.10;;;;;;10827692;32;20070;-74
2023/04/29 05:55:58;;;;;;;6.37;4.47;;;16.10;79.50;;;;;;10826411;33;20050;-74
2023/04/29 06:02:00;;;;;;;6.00;3.65;;;16.30;79.30;;;;;;10815101;32;20032;-74
2023/04/29 06:08:04;;;;;;;7.25;4.62;;;16.30;79.30;;;;;;10827808;33;20017;-74
2023/04/29 06:14:06;;;;;;;7.45;3.83;;;16.30;79.70;;;;;;10827623;33;20024;-74
2023/04/29 06:20:09;;;;;;;7.32;4.75;;;16.20;80.10;;;;;;10826900;33;20349;-74
2023/04/29 06:26:14;;;;;;;6.72;3.47;;;16.30;80.40;;;;;;10814136;33;20047;-74
2023/04/29 06:32:17;;;;;;;4.53;3.40;;;16.30;80.30;;;;;;10812398;33;20074;-74
2023/04/29 06:38:23;;;;;;;6.40;4.32;;;16.40;80.20;;;;;;10828109;33;20050;-74
2023/04/29 06:44:26;;;;;;;4.37;3.30;;;16.30;80.50;;;;;;10826144;33;20307;-74
2023/04/29 06:50:32;;;;;;;14.00;5.87;;;16.40;80.30;;;;;;10826757;33;20027;-74
2023/04/29 06:56:34;;;;;;;7.53;5.37;;;16.30;80.10;;;;;;10827489;33;20052;-74
2023/04/29 07:02:39;;;;;;;5.70;3.67;;;16.30;80.30;;;;;;10814217;33;20020;-74
2023/04/29 07:09:04;;;;;;;8.73;5.85;;;16.40;80.30;;;;;;10826645;33;20363;-74
2023/04/29 07:15:07;;;;;;;5.07;3.45;;;16.50;80.00;;;;;;10811687;33;20038;-74
2023/04/29 07:21:18;;;;;;;5.40;4.30;;;16.60;79.70;;;;;;10825235;32;20036;-74
2023/04/29 07:27:21;;;;;;;14.32;9.50;;;16.70;79.40;;;;;;10819427;33;20050;-76
2023/04/29 07:33:23;;;;;;;6.90;4.18;;;16.80;79.30;;;;;;10820024;33;20424;-76
2023/04/29 07:39:25;;;;;;;14.15;7.28;;;16.80;78.90;;;;;;10815434;33;20023;-75
2023/04/29 07:45:28;;;;;;;7.53;6.15;;;17.00;78.80;;;;;;10822527;33;20341;-75
2023/04/29 07:51:30;;;;;;;8.30;5.95;;;16.90;79.00;;;;;;10821410;27;20032;-74
2023/04/29 07:57:32;;;;;;;11.27;4.93;;;17.10;79.20;;;;;;10787038;33;20028;-74
2023/04/29 08:03:35;;;;;;;4.32;2.65;;;17.40;78.70;;;;;;10787283;33;20020;-74
2023/04/29 08:09:37;;;;;;;4.68;3.05;;;17.50;78.50;;;;;;10783636;33;20394;-74
2023/04/29 08:15:41;;;;;;;5.70;3.47;;;17.50;77.80;;;;;;10785974;33;20055;-74
2023/04/29 08:21:42;;;;;;;5.97;3.87;;;17.60;77.20;;;;;;10784389;33;20020;-74
2023/04/29 08:27:45;;;;;;;4.15;2.65;;;17.80;77.00;;;;;;10791813;33;20236;-74
2023/04/29 08:33:48;;;;;;;4.70;3.45;;;17.80;76.60;;;;;;10780000;33;20055;-75
2023/04/29 08:39:49;;;;;;;5.32;3.37;;;17.90;76.40;;;;;;10793207;33;20051;-74
2023/04/29 08:45:58;;;;;;;4.30;2.87;;;17.90;76.60;;;;;;10779000;33;20045;-74
2023/04/29 08:52:03;;;;;;;5.62;2.95;;;18.00;76.40;;;;;;10791236;33;20024;-74
2023/04/29 08:58:06;;;;;;;5.00;3.05;;;18.10;76.40;;;;;;10790978;33;20020;-74
2023/04/29 09:04:45;;;;;;;4.72;3.50;;;18.20;75.60;;;;;;10778858;33;20342;-74
2023/04/29 09:10:47;;;;;;;7.10;4.43;;;18.30;75.60;;;;;;10856379;32;20035;-74
2023/04/29 09:16:49;;;;;;;3.58;2.40;;;18.40;75.70;;;;;;10868181;32;20383;-74
2023/04/29 09:23:11;;;;;;;6.03;3.97;;;18.50;75.30;;;;;;10855556;32;20070;-74
2023/04/29 09:29:15;;;;;;;5.62;3.60;;;18.70;74.50;;;;;;10868372;32;20049;-74
2023/04/29 09:35:27;;;;;;;4.35;2.85;;;18.70;73.80;;;;;;10854787;32;20390;-74
2023/04/29 09:41:29;;;;;;;3.47;2.45;;;18.70;73.40;;;;;;10867908;32;20132;-74
2023/04/29 09:47:31;;;;;;;6.32;3.30;;;18.80;73.00;;;;;;10805187;32;20300;-74
2023/04/29 09:53:36;;;;;;;5.50;1.90;;;19.00;72.60;;;;;;10791008;33;20024;-74
2023/04/29 09:59:50;;;;;;;5.70;2.42;;;19.10;72.00;;;;;;10791267;33;20032;-74
2023/04/29 10:05:52;;;;;;;4.70;2.10;;;19.20;71.40;;;;;;10791619;33;20009;-74
2023/04/29 10:11:56;;;;;;;4.93;3.17;;;19.10;71.40;;;;;;10790937;33;20090;-74
2023/04/29 10:18:04;;;;;;;7.82;5.72;;;19.30;71.00;;;;;;10778326;33;20024;-74
2023/04/29 10:24:16;;;;;;;5.78;2.92;;;19.40;70.70;;;;;;10790529;33;20048;-74
2023/04/29 10:30:21;;;;;;;8.00;4.82;;;19.30;70.30;;;;;;10791029;33;20017;-75
2023/04/29 10:37:07;;;;;;;7.30;4.47;;;19.40;71.80;;;;;;10789151;32;20033;-75
2023/04/29 10:43:11;;;;;;;7.00;4.53;;;19.30;72.50;;;;;;10773598;33;20016;-76
2023/04/29 10:49:14;;;;;;;6.70;3.37;;;19.30;72.00;;;;;;10790469;32;20067;-74
2023/04/29 10:55:18;;;;;;;7.68;5.00;;;19.40;71.10;;;;;;10777799;33;20035;-74
2023/04/29 11:01:50;;;;;;;4.50;2.95;;;19.90;70.80;;;;;;10772132;33;20055;-74
2023/04/29 11:08:27;;;;;;;9.90;6.35;;;20.10;69.70;;;;;;10789981;33;20074;-74
2023/04/29 11:14:41;;;;;;;6.65;3.47;;;20.10;69.70;;;;;;10790053;33;20374;-74
2023/04/29 11:21:10;;;;;;;7.03;3.78;;;20.10;69.30;;;;;;10785398;33;20473;-74
2023/04/29 11:27:14;;;;;;;15.40;8.43;;;20.50;68.10;;;;;;10786217;32;20386;-73
2023/04/29 11:33:16;;;;;;;5.55;3.70;;;20.90;68.30;;;;;;10776191;33;20452;-74
2023/04/29 11:39:28;;;;;;;8.45;3.47;;;21.20;67.70;;;;;;10785043;33;20180;-74
2023/04/29 11:45:34;;;;;;;6.82;3.75;;;21.60;65.90;;;;;;10789093;33;20055;-75
2023/04/29 11:51:36;;;;;;;5.50;3.05;;;21.80;66.30;;;;;;10787566;33;20016;-74
2023/04/29 11:57:39;;;;;;;5.47;2.62;;;21.60;66.40;;;;;;10787628;33;20395;-74
2023/04/29 12:03:43;;;;;;;10.13;4.60;;;21.40;66.40;;;;;;10787464;33;20017;-75
2023/04/29 12:09:46;;;;;;;11.15;7.20;;;21.50;66.30;;;;;;10788373;33;20017;-73
2023/04/29 12:15:51;;;;;;;15.45;6.45;;;21.60;67.00;;;;;;10786970;33;20407;-74
2023/04/29 12:21:57;;;;;;;6.32;4.32;;;21.40;65.90;;;;;;10786099;33;20351;-73
2023/04/29 12:28:00;;;;;;;8.77;6.22;;;21.30;67.20;;;;;;10787971;33;20021;-75
2023/04/29 12:34:03;;;;;;;9.73;6.50;;;21.50;66.80;;;;;;10787031;33;20330;-74
2023/04/29 12:40:12;;;;;;;9.73;5.75;;;21.40;68.10;;;;;;10786215;33;20016;-74
2023/04/29 12:46:15;;;;;;;8.93;4.62;;;21.40;69.20;;;;;;10786268;33;20354;-73
2023/04/29 12:52:17;;;;;;;7.00;3.83;;;21.80;67.10;;;;;;10784963;33;20050;-75
2023/04/29 12:58:41;;;;;;;12.32;6.85;;;21.90;66.10;;;;;;10781704;33;20043;-74
2023/04/29 13:04:44;;;;;;;8.45;4.20;;;22.00;66.40;;;;;;10783101;33;20017;-74
2023/04/29 13:10:50;;;;;;;9.27;5.95;;;22.10;66.10;;;;;;10786765;33;20024;-74
2023/04/29 13:17:19;;;;;;;15.98;7.93;;;22.30;65.10;;;;;;10789035;33;20028;-76
2023/04/29 13:23:22;;;;;;;16.70;5.15;;;22.20;66.00;;;;;;10791873;33;20020;-74
2023/04/29 13:29:27;;;;;;;13.40;7.20;;;22.20;65.70;;;;;;10791697;33;20078;-75
2023/04/29 13:35:30;;;;;;;10.73;6.90;;;22.50;64.60;;;;;;10791914;33;20436;-73
2023/04/29 13:41:37;;;;;;;9.50;3.72;;;22.30;63.80;;;;;;10792903;33;20319;-74
2023/04/29 13:47:43;;;;;;;7.70;4.73;;;22.20;63.80;;;;;;10792312;33;20047;-74
2023/04/29 13:53:52;;;;;;;9.38;4.18;;;22.10;64.00;;;;;;10790875;33;20059;-74
2023/04/29 13:59:54;;;;;;;7.35;4.95;;;22.00;64.00;;;;;;10790643;33;20077;-74
2023/04/29 14:05:57;;;;;;;10.50;6.82;;;22.00;63.90;;;;;;10790848;33;20528;-74
2023/04/29 14:12:02;;;;;;;9.60;6.37;;;22.00;63.90;;;;;;10792041;33;20413;-74
2023/04/29 14:18:08;;;;;;;12.23;10.48;;;22.00;63.80;;;;;;10788438;33;20028;-74
2023/04/29 14:24:10;;;;;;;30.08;20.40;;;22.00;64.40;;;;;;10790993;33;20012;-74
2023/04/29 14:30:17;;;;;;;14.48;11.15;;;21.80;65.80;;;;;;10787030;33;20300;-74
2023/04/29 14:36:25;;;;;;;9.25;6.50;;;21.70;65.50;;;;;;10791363;33;20385;-75
2023/04/29 14:42:27;;;;;;;16.20;13.35;;;21.60;65.50;;;;;;10790463;33;20024;-74
2023/04/29 14:48:30;;;;;;;15.35;10.65;;;21.60;65.60;;;;;;10790687;33;20057;-74
2023/04/29 14:54:35;;;;;;;17.42;10.15;;;21.70;65.30;;;;;;10788941;33;20055;-74
2023/04/29 15:00:51;;;;;;;16.25;9.38;;;21.80;65.10;;;;;;10787424;33;20051;-74
2023/04/29 15:06:57;;;;;;;11.90;7.67;;;21.80;65.10;;;;;;10788888;33;20082;-74
2023/04/29 15:13:00;;;;;;;11.60;8.85;;;21.70;65.10;;;;;;10787633;33;20043;-74
2023/04/29 15:19:24;;;;;;;12.85;10.18;;;21.80;64.80;;;;;;10789581;33;20009;-74
2023/04/29 15:25:28;;;;;;;26.02;16.08;;;21.80;64.60;;;;;;10789488;33;20357;-74
2023/04/29 15:31:30;;;;;;;15.02;9.98;;;21.80;65.30;;;;;;10815206;33;20066;-74
2023/04/29 15:37:33;;;;;;;182.70;130.68;;;21.70;65.10;;;;;;10824765;32;20432;-75
2023/04/29 15:43:36;;;;;;;61.95;45.90;;;21.70;65.60;;;;;;10791025;33;20028;-74
2023/04/29 15:49:41;;;;;;;40.05;32.25;;;21.60;65.50;;;;;;10586257;27;7077103;-74
2023/04/29 15:55:47;;;;;;;62.38;41.45;;;21.60;65.10;;;;;;10822415;33;20059;-74
2023/04/29 16:02:09;;;;;;;53.30;39.63;;;21.70;65.10;;;;;;10825414;33;20039;-75
2023/04/29 16:08:12;;;;;;;42.60;29.40;;;21.70;65.00;;;;;;10875141;32;20039;-75
2023/04/29 16:14:14;;;;;;;51.25;38.13;;;21.60;65.00;;;;;;10823641;33;20012;-75
2023/04/29 16:20:18;;;;;;;53.70;38.97;;;21.70;65.00;;;;;;10823357;33;20401;-75
2023/04/29 16:26:20;;;;;;;67.70;49.85;;;21.60;65.00;;;;;;10823352;33;20025;-75
2023/04/29 16:32:22;;;;;;;42.25;36.53;;;21.60;64.80;;;;;;10824354;33;20338;-74
2023/04/29 16:39:03;;;;;;;44.45;32.97;;;21.60;64.60;;;;;;10823115;33;20055;-75
2023/04/29 16:45:14;;;;;;;25.85;19.52;;;21.50;64.80;;;;;;10823025;32;20051;-72
2023/04/29 16:51:17;;;;;;;16.15;11.85;;;21.40;64.90;;;;;;10826749;32;20412;-74
2023/04/29 16:57:20;;;;;;;12.55;9.60;;;21.30;65.00;;;;;;10809521;33;20354;-73
2023/04/29 17:03:25;;;;;;;11.18;7.57;;;21.30;64.80;;;;;;10788783;33;20038;-73
2023/04/29 17:09:38;;;;;;;12.20;6.95;;;21.30;64.70;;;;;;10792371;33;20047;-74
2023/04/29 17:15:48;;;;;;;17.20;10.13;;;21.30;64.70;;;;;;10794641;33;20058;-73
2023/04/29 17:21:52;;;;;;;10.65;7.15;;;21.60;64.50;;;;;;10825580;33;20247;-74
2023/04/29 17:27:54;;;;;;;10.25;5.78;;;22.30;63.30;;;;;;10814804;33;20008;-73
2023/04/29 17:34:04;;;;;;;70.57;47.58;;;22.30;63.20;;;;;;10807681;33;20507;-75
2023/04/29 17:40:10;;;;;;;71.45;46.42;;;22.00;64.00;;;;;;10807248;33;20090;-74
2023/04/29 17:46:14;;;;;;;49.45;34.53;;;21.60;65.10;;;;;;10788113;33;20033;-74
2023/04/29 17:52:20;;;;;;;31.48;25.00;;;21.40;65.60;;;;;;10789964;33;20437;-74
2023/04/29 17:58:22;;;;;;;33.63;19.17;;;21.30;65.90;;;;;;10786277;33;20032;-74
2023/04/29 18:04:24;;;;;;;26.45;17.23;;;21.10;66.10;;;;;;10790677;33;20346;-74
2023/04/29 18:10:26;;;;;;;22.40;17.83;;;20.80;66.60;;;;;;10786699;33;20020;-74
2023/04/29 18:16:28;;;;;;;20.67;13.35;;;20.70;67.10;;;;;;10786374;33;20043;-74
2023/04/29 18:22:30;;;;;;;16.00;11.95;;;20.40;67.70;;;;;;10789644;33;20020;-75
2023/04/29 18:28:32;;;;;;;13.55;8.70;;;20.30;68.20;;;;;;10788858;33;20013;-75
2023/04/29 18:34:35;;;;;;;10.50;7.20;;;20.10;68.80;;;;;;10788764;33;20296;-75
2023/04/29 18:40:37;;;;;;;12.95;6.78;;;20.00;68.80;;;;;;10789201;33;20025;-74
2023/04/29 18:46:39;;;;;;;8.13;5.62;;;20.00;69.10;;;;;;10787058;33;20284;-75
2023/04/29 18:52:41;;;;;;;8.57;5.75;;;20.00;69.30;;;;;;10787551;33;20043;-75
2023/04/29 18:58:43;;;;;;;11.32;6.72;;;19.90;69.70;;;;;;10786427;33;20410;-75
2023/04/29 19:04:45;;;;;;;14.38;7.65;;;19.80;70.20;;;;;;10785901;33;20074;-75
2023/04/29 19:10:48;;;;;;;9.40;5.90;;;19.70;70.80;;;;;;10786927;33;20058;-75
2023/04/29 19:16:50;;;;;;;11.50;5.82;;;19.60;71.70;;;;;;10797760;33;20028;-75
2023/04/29 19:22:52;;;;;;;8.68;5.50;;;19.50;72.30;;;;;;10779696;33;20440;-75
2023/04/29 19:28:54;;;;;;;9.85;6.75;;;19.40;72.70;;;;;;10784304;33;20414;-75
2023/04/29 19:34:56;;;;;;;10.50;6.25;;;19.30;73.40;;;;;;10851730;32;20067;-75
2023/04/29 19:40:59;;;;;;;7.75;4.82;;;19.20;74.00;;;;;;10821691;33;20016;-75
2023/04/29 19:47:01;;;;;;;8.05;5.53;;;19.20;74.30;;;;;;10825203;33;20042;-75
2023/04/29 19:53:03;;;;;;;7.87;5.22;;;19.30;74.40;;;;;;10824732;33;20016;-75
2023/04/29 19:59:05;;;;;;;8.02;5.20;;;19.30;74.10;;;;;;10824760;33;20023;-75
2023/04/29 20:05:12;;;;;;;8.23;5.40;;;19.30;74.60;;;;;;10812092;33;20055;-75
2023/04/29 20:11:14;;;;;;;7.72;4.87;;;19.30;74.60;;;;;;10824495;32;20032;-75
2023/04/29 20:17:16;;;;;;;9.82;5.45;;;19.30;74.50;;;;;;10782525;33;20056;-75
2023/04/29 20:23:18;;;;;;;8.23;5.07;;;19.30;74.50;;;;;;10792647;33;20047;-75
2023/04/29 20:29:21;;;;;;;9.55;4.62;;;19.20;74.30;;;;;;10800726;33;20028;-75
2023/04/29 20:35:24;;;;;;;5.62;4.37;;;19.10;74.30;;;;;;10828333;33;20054;-75
2023/04/29 20:41:27;;;;;;;7.53;5.50;;;19.00;74.50;;;;;;10831046;33;20074;-75
2023/04/29 20:47:29;;;;;;;5.55;4.15;;;19.00;74.90;;;;;;10830487;33;20023;-75
2023/04/29 20:53:32;;;;;;;7.30;3.35;;;19.00;74.90;;;;;;10829666;33;20094;-74
2023/04/29 20:59:34;;;;;;;5.55;3.78;;;18.90;74.90;;;;;;10829416;33;20047;-75
2023/04/29 21:05:36;;;;;;;8.30;5.10;;;18.90;75.20;;;;;;10830260;33;20066;-75
2023/04/29 21:11:38;;;;;;;6.62;4.65;;;18.80;75.50;;;;;;10830231;33;20016;-75
2023/04/29 21:17:40;;;;;;;8.20;5.70;;;18.80;75.50;;;;;;10827366;33;20330;-75
2023/04/29 21:23:43;;;;;;;9.32;6.55;;;18.80;75.60;;;;;;10829840;33;20327;-75
2023/04/29 21:29:45;;;;;;;5.22;4.43;;;18.70;76.40;;;;;;10829685;33;20374;-75
2023/04/29 21:35:50;;;;;;;8.73;6.70;;;18.60;77.20;;;;;;10828268;33;20085;-75
2023/04/29 21:41:53;;;;;;;11.52;6.45;;;18.50;77.40;;;;;;10826583;33;20013;-74
2023/04/29 21:48:02;;;;;;;10.32;5.45;;;18.40;77.70;;;;;;10829066;33;20310;-74
2023/04/29 21:54:07;;;;;;;8.68;6.65;;;18.50;77.80;;;;;;10827729;32;20017;-73
2023/04/29 22:00:19;;;;;;;9.90;6.95;;;18.50;77.80;;;;;;10828104;33;20008;-74
2023/04/29 22:06:22;;;;;;;9.43;7.30;;;18.40;78.10;;;;;;10828596;33;20390;-73
2023/04/29 22:12:24;;;;;;;8.00;5.57;;;18.40;77.90;;;;;;10827883;33;20016;-74
2023/04/29 22:18:26;;;;;;;8.50;6.85;;;18.40;77.70;;;;;;10825725;32;20479;-74
2023/04/29 22:24:28;;;;;;;8.35;5.65;;;18.40;77.60;;;;;;10814336;33;20038;-74
2023/04/29 22:30:30;;;;;;;7.87;4.82;;;18.40;77.40;;;;;;10825060;33;20039;-74
2023/04/29 22:36:32;;;;;;;9.70;6.75;;;18.30;77.40;;;;;;10825308;33;20066;-74
2023/04/29 22:42:35;;;;;;;10.32;6.72;;;18.40;77.50;;;;;;10825094;32;20028;-74
2023/04/29 22:48:37;;;;;;;12.02;8.05;;;18.40;77.40;;;;;;10827271;33;20051;-74
2023/04/29 22:54:39;;;;;;;10.25;8.02;;;18.30;77.30;;;;;;10812865;33;20051;-74
2023/04/29 23:00:45;;;;;;;9.73;7.03;;;18.30;77.20;;;;;;10825912;33;20020;-74
2023/04/29 23:06:47;;;;;;;9.25;5.68;;;18.20;77.30;;;;;;10826637;33;20012;-74
2023/04/29 23:12:49;;;;;;;6.37;4.95;;;18.10;77.30;;;;;;10824763;33;20012;-75
2023/04/29 23:18:51;;;;;;;10.95;7.07;;;18.00;77.40;;;;;;10826483;33;20046;-74
2023/04/29 23:24:53;;;;;;;8.98;6.55;;;18.00;77.40;;;;;;10825212;33;20020;-74
2023/04/29 23:30:56;;;;;;;11.20;8.43;;;18.00;77.40;;;;;;10825556;33;20039;-74
2023/04/29 23:37:00;;;;;;;9.50;8.13;;;18.10;77.50;;;;;;10823436;32;20054;-74
2023/04/29 23:43:02;;;;;;;11.95;6.15;;;18.10;77.40;;;;;;10813326;33;20016;-74
2023/04/29 23:49:05;;;;;;;11.25;8.77;;;18.10;77.70;;;;;;10830148;27;20024;-74
2023/04/29 23:55:10;;;;;;;9.13;6.93;;;18.00;78.20;;;;;;10811952;33;20028;-74
